Time;durP1;ratioP1;P1;durP2;ratioP2;P2;SDS_P1;SDS_P2;PMS_P1;PMS_P2;Temp;Humidity;BMP_temperature;BMP_pressure;BME280_temperature;BME280_humidity;BME280_pressure;Samples;Min_cycle;Max_cycle;Signal;HPM_P1;HPM_P2
2022/05/23 00:01:37;;;;;;;;;19.00;17.50;;;;;18.80;100.00;100153.69;6313668;22;45185;-84
2022/05/23 00:04:02;;;;;;;;;11.00;11.00;;;;;18.79;100.00;100147.47;6291272;22;45320;-86
2022/05/23 00:06:28;;;;;;;;;10.50;10.50;;;;;18.79;100.00;100147.47;6315389;22;45230;-86
2022/05/23 00:08:53;;;;;;;;;10.00;9.00;;;;;18.80;100.00;100135.69;6308931;22;45307;-86
2022/05/23 00:11:20;;;;;;;;;9.25;7.25;;;;;18.79;100.00;100135.88;6280752;22;46831;-85
2022/05/23 00:13:46;;;;;;;;;9.40;7.60;;;;;18.75;100.00;100130.00;6298823;22;45334;-85
2022/05/23 00:16:21;;;;;;;;;8.80;6.60;;;;;18.70;100.00;100124.28;6307281;22;44723;-86
2022/05/23 00:18:48;;;;;;;;;6.40;6.40;;;;;18.69;100.00;100120.75;6304144;22;45453;-87
2022/05/23 00:21:14;;;;;;;;;7.20;5.00;;;;;18.65;100.00;100121.22;6307608;22;45408;-84
2022/05/23 00:23:39;;;;;;;;;4.60;4.60;;;;;18.66;100.00;100120.22;6306593;22;45104;-84
2022/05/23 00:26:04;;;;;;;;;9.75;7.75;;;;;18.65;100.00;100116.69;6310458;22;44816;-83
2022/05/23 00:28:30;;;;;;;;;7.50;7.50;;;;;18.66;100.00;100114.84;6312769;22;45260;-83
2022/05/23 00:30:55;;;;;;;;;6.75;6.75;;;;;18.65;100.00;100108.59;6314191;22;45116;-84
2022/05/23 00:36:05;;;;;;;;;4.60;4.60;;;;;18.56;100.00;100092.66;6313095;22;44758;-83
2022/05/23 00:38:31;;;;;;;;;5.00;5.00;;;;;18.54;100.00;100094.69;6279414;22;45338;-84
2022/05/23 00:44:04;;;;;;;;;9.40;7.00;;;;;18.50;100.00;100086.09;6311484;22;45309;-83
2022/05/23 00:46:30;;;;;;;;;6.80;5.20;;;;;18.48;100.00;100072.00;6286900;22;44747;-83
2022/05/23 00:48:59;;;;;;;;;8.00;6.25;;;;;18.49;100.00;100070.97;6308193;22;44645;-84
2022/05/23 00:51:25;;;;;;;;;8.80;6.00;;;;;18.50;100.00;100069.97;6304948;22;45255;-84
2022/05/23 00:53:54;;;;;;;;;6.20;5.00;;;;;18.50;100.00;100078.88;6305192;22;44689;-84
2022/05/23 00:56:43;;;;;;;;;9.40;6.60;;;;;18.49;100.00;100069.13;6304683;22;44953;-85
2022/05/23 00:59:10;;;;;;;;;8.60;8.40;;;;;18.50;100.00;100062.72;6307770;22;44768;-84
2022/05/23 01:01:37;;;;;;;;;4.40;4.40;;;;;18.48;100.00;100069.31;6310330;22;45334;-84
2022/05/23 01:04:05;;;;;;;;;7.60;5.60;;;;;18.49;100.00;100069.13;6305440;22;45248;-84
2022/05/23 01:06:30;;;;;;;;;6.60;6.60;;;;;18.46;100.00;100064.06;6306449;22;44895;-83
2022/05/23 01:08:56;;;;;;;;;6.75;5.50;;;;;18.43;100.00;100059.06;6312684;22;45171;-83
2022/05/23 01:11:23;;;;;;;;;5.00;5.00;;;;;18.36;100.00;100041.91;6313966;22;45125;-81
2022/05/23 01:13:48;;;;;;;;;4.80;4.80;;;;;18.35;100.00;100034.03;6315104;22;44677;-83
2022/05/23 01:16:14;;;;;;;;;6.00;5.00;;;;;18.31;100.00;100022.75;6325169;22;44801;-85
2022/05/23 01:18:40;;;;;;;;;2.00;2.00;;;;;18.30;100.00;100017.56;6309699;22;44769;-86
2022/05/23 01:21:11;;;;;;;;;6.00;5.00;;;;;18.27;100.00;100001.75;6308426;22;45337;-87
2022/05/23 01:23:57;;;;;;;;;5.20;4.40;;;;;18.23;100.00;99995.91;6309336;22;44691;-88
2022/05/23 01:26:22;;;;;;;;;4.00;4.00;;;;;18.20;100.00;99980.94;6290545;22;44884;-86
2022/05/23 01:28:48;;;;;;;;;8.25;5.00;;;;;18.18;100.00;99966.84;6317661;22;44761;-88
2022/05/23 01:31:15;;;;;;;;;5.75;4.25;;;;;18.19;100.00;99967.66;6317629;22;45263;-88
2022/05/23 01:33:41;;;;;;;;;6.40;5.00;;;;;18.17;100.00;99966.97;6334735;22;45322;-86
2022/05/23 01:36:12;;;;;;;;;6.25;5.00;;;;;18.16;100.00;99976.91;6292575;22;45307;-87
2022/05/23 01:38:37;;;;;;;;;2.40;2.40;;;;;18.15;100.00;99972.53;6311288;22;44733;-87
2022/05/23 01:41:04;;;;;;;;;5.00;5.00;;;;;18.17;100.00;99975.03;6308096;22;45611;-86
2022/05/23 01:43:30;;;;;;;;;5.00;5.00;;;;;18.17;100.00;99962.44;6310933;22;44700;-87
2022/05/23 01:45:58;;;;;;;;;4.00;4.00;;;;;18.15;100.00;99945.66;6309306;22;45312;-88
2022/05/23 01:48:24;;;;;;;;;7.20;5.00;;;;;18.15;100.00;99939.44;6310455;22;44792;-87
2022/05/23 01:50:52;;;;;;;;;5.00;5.00;;;;;18.14;100.00;99929.72;6312563;22;45286;-86
2022/05/23 01:53:17;;;;;;;;;4.00;4.00;;;;;18.15;100.00;99926.00;6309912;22;44737;-87
2022/05/23 01:55:43;;;;;;;;;4.50;4.50;;;;;18.12;100.00;99919.09;6310934;22;45339;-87
2022/05/23 01:58:09;;;;;;;;;3.00;2.00;;;;;18.11;100.00;99930.88;6315738;22;44654;-89
2022/05/23 02:03:18;;;;;;;;;5.00;5.00;;;;;18.08;100.00;99925.81;6310273;22;44692;-87
2022/05/23 02:05:44;;;;;;;;;5.25;5.25;;;;;18.06;100.00;99913.59;6285896;22;44661;-90
2022/05/23 02:08:09;;;;;;;;;4.50;4.50;;;;;18.05;100.00;99912.75;6317007;22;44940;-89
2022/05/23 02:10:35;;;;;;;;;6.25;5.00;;;;;18.02;100.00;99910.38;6289178;22;44928;-88
2022/05/23 02:13:02;;;;;;;;;3.50;3.50;;;;;18.03;100.00;99905.84;6318161;22;45672;-89
2022/05/23 02:15:32;;;;;;;;;5.80;4.40;;;;;18.02;100.00;99918.44;6308736;22;44670;-88
2022/05/23 02:18:02;;;;;;;;;3.60;3.60;;;;;18.01;100.00;99911.41;6309311;22;44678;-88
2022/05/23 02:20:28;;;;;;;;;4.40;4.40;;;;;17.98;100.00;99919.81;6287366;22;45260;-85
2022/05/23 02:22:54;;;;;;;;;5.00;5.00;;;;;17.97;100.00;99937.78;6321218;22;44744;-88
2022/05/23 02:25:20;;;;;;;;;7.50;5.25;;;;;17.94;100.00;99929.25;6331954;22;44717;-88
2022/05/23 02:27:46;;;;;;;;;4.60;4.20;;;;;17.89;100.00;99932.44;6296776;22;44846;-88
2022/05/23 02:30:14;;;;;;;;;3.50;3.50;;;;;17.85;100.00;99941.84;6318713;22;45282;-88
2022/05/23 02:32:41;;;;;;;;;5.00;5.00;;;;;17.84;100.00;99933.94;6322240;22;44590;-89
2022/05/23 02:35:07;;;;;;;;;3.00;3.00;;;;;17.82;100.00;99941.31;6322663;22;45241;-87
2022/05/23 02:37:34;;;;;;;;;6.20;5.00;;;;;17.80;100.00;99954.94;6293199;22;44791;-88
2022/05/23 02:39:59;;;;;;;;;2.60;2.60;;;;;17.77;100.00;99955.25;6284563;22;45176;-89
2022/05/23 02:42:25;;;;;;;;;6.00;4.00;;;;;17.75;100.00;99951.09;6288381;22;45312;-88
2022/05/23 02:44:50;;;;;;;;;5.50;5.00;;;;;17.70;100.00;99938.97;6288293;22;44733;-88
2022/05/23 02:47:16;;;;;;;;;5.00;5.00;;;;;17.68;100.00;99940.97;6317829;22;45356;-88
2022/05/23 02:49:41;;;;;;;;;6.00;4.50;;;;;17.64;100.00;99947.66;6318803;22;45209;-88
2022/05/23 02:52:07;;;;;;;;;4.00;4.00;;;;;17.63;100.00;99935.25;6320778;22;44546;-88
2022/05/23 02:54:32;;;;;;;;;6.75;5.00;;;;;17.61;100.00;99929.22;6340801;22;44607;-88
2022/05/23 02:56:58;;;;;;;;;4.00;4.00;;;;;17.60;100.00;99921.31;6300671;22;44814;-88
2022/05/23 02:59:24;;;;;;;;;4.25;4.25;;;;;17.59;100.00;99925.00;6315766;22;45133;-88
2022/05/23 03:04:33;;;;;;;;;5.80;4.80;;;;;17.61;100.00;99929.22;6323049;22;44583;-88
2022/05/23 03:06:59;;;;;;;;;6.25;4.50;;;;;17.64;100.00;99934.25;6296187;22;44793;-86
2022/05/23 03:09:24;;;;;;;;;5.50;5.50;;;;;17.67;100.00;99938.44;6296700;22;46026;-89
2022/05/23 03:11:52;;;;;;;;;8.00;5.50;;;;;17.70;100.00;99954.25;6331382;22;44526;-87
2022/05/23 03:14:25;;;;;;;;;6.40;5.00;;;;;17.75;100.00;99967.22;6293541;22;44654;-90
2022/05/23 03:16:52;;;;;;;;;6.20;4.00;;;;;17.78;100.00;99962.31;6303824;22;44819;-88
2022/05/23 03:19:18;;;;;;;;;4.80;4.80;;;;;17.83;100.00;99975.25;6302877;22;45176;-88
2022/05/23 03:27:14;;;;;;;;;5.20;3.60;;;;;17.91;100.00;99948.38;6188374;23;44754;-87
2022/05/23 03:29:40;;;;;;;;;5.25;5.25;;;;;17.92;100.00;99929.38;6191491;23;45146;-87
2022/05/23 03:32:06;;;;;;;;;10.20;6.20;;;;;17.92;100.00;99942.00;6168758;23;44775;-85
2022/05/23 03:34:32;;;;;;;;;5.25;5.25;;;;;17.90;100.00;99926.03;6165963;23;44675;-86
2022/05/23 03:36:57;;;;;;;;;5.25;4.00;;;;;17.91;100.00;99919.66;6193645;23;44755;-87
2022/05/23 03:39:23;;;;;;;;;6.00;5.00;;;;;17.95;100.00;99904.03;6194060;23;44897;-86
2022/05/23 03:41:52;;;;;;;;;5.00;5.00;;;;;17.95;100.00;99887.91;6186678;23;45118;-86
2022/05/23 03:44:18;;;;;;;;;6.20;5.00;;;;;17.96;100.00;99893.09;6182721;23;45400;-86
2022/05/23 03:46:43;;;;;;;;;4.50;4.50;;;;;17.97;100.00;99885.88;6158647;23;44834;-86
2022/05/23 03:49:08;;;;;;;;;5.00;5.00;;;;;17.94;100.00;99894.31;6185122;23;45231;-87
2022/05/23 03:51:34;;;;;;;;;7.25;5.00;;;;;17.90;100.00;99890.28;6186483;23;45379;-87
2022/05/23 03:54:00;;;;;;;;;8.40;5.80;;;;;17.85;100.00;99892.63;6187022;23;44726;-85
2022/05/23 03:56:27;;;;;;;;;8.00;7.25;;;;;17.80;100.00;99889.63;6184372;23;45378;-84
2022/05/23 03:58:52;;;;;;;;;6.40;6.40;;;;;17.73;100.00;99890.28;6181502;23;45126;-87
2022/05/23 04:01:21;;;;;;;;;7.00;7.00;;;;;17.71;100.00;99896.81;6230529;22;45253;-86
2022/05/23 04:03:47;;;;;;;;;6.40;6.40;;;;;17.65;100.00;99895.66;6308955;22;44832;-86
2022/05/23 04:06:13;;;;;;;;;8.75;7.00;;;;;17.60;100.00;99884.56;6310497;22;45313;-88
2022/05/23 04:08:38;;;;;;;;;8.00;7.50;;;;;17.57;100.00;99884.06;6282541;22;46532;-85
2022/05/23 04:11:05;;;;;;;;;8.00;6.00;;;;;17.55;100.00;99875.31;6281702;22;45211;-86
2022/05/23 04:13:30;;;;;;;;;6.60;6.60;;;;;17.52;100.00;99868.44;6308503;22;44787;-86
2022/05/23 04:15:56;;;;;;;;;9.00;8.00;;;;;17.50;100.00;99865.06;6306584;22;45553;-84
2022/05/23 04:18:22;;;;;;;;;5.50;4.25;;;;;17.54;100.00;99853.00;6306285;22;45134;-86
2022/05/23 04:20:48;;;;;;;;;5.25;5.25;;;;;17.57;100.00;99851.84;6279129;22;45345;-87
2022/05/23 04:23:14;;;;;;;;;8.20;8.20;;;;;17.62;100.00;99849.47;6315090;22;45107;-86
2022/05/23 04:25:41;;;;;;;;;7.00;5.60;;;;;17.64;100.00;99842.91;6283414;22;45125;-84
2022/05/23 04:28:08;;;;;;;;;8.00;6.60;;;;;17.64;100.00;99832.16;6304795;22;45324;-83
2022/05/23 04:30:34;;;;;;;;;7.40;7.40;;;;;17.63;100.00;99827.81;6306506;22;44720;-85
2022/05/23 04:35:44;;;;;;;;;7.00;7.00;;;;;17.65;100.00;99815.06;6307300;22;45314;-83
2022/05/23 04:38:09;;;;;;;;;7.25;7.25;;;;;17.65;100.00;99814.22;6278953;22;44873;-83
2022/05/23 04:40:35;;;;;;;;;7.00;6.00;;;;;17.67;100.00;99802.28;6308246;22;44826;-83
2022/05/23 04:43:00;;;;;;;;;8.25;7.50;;;;;17.72;100.00;99774.91;6313436;22;45075;-82
2022/05/23 04:45:26;;;;;;;;;9.75;8.00;;;;;17.77;100.00;99769.06;6309831;22;45403;-84
2022/05/23 04:50:35;;;;;;;;;0.00;0.00;;;;;17.79;100.00;99816.22;6306714;22;44770;-81
2022/05/23 04:53:01;;;;;;;;;10.00;8.50;;;;;17.73;100.00;99817.75;6307814;22;44709;-82
2022/05/23 04:55:28;;;;;;;;;5.25;5.25;;;;;17.76;100.00;99821.94;6309891;22;44670;-82
2022/05/23 04:57:53;;;;;;;;;6.60;6.60;;;;;17.89;100.00;99810.63;6284791;22;45261;-82
2022/05/23 05:00:21;;;;;;;;;7.00;7.00;;;;;18.01;100.00;99816.50;6315569;22;44874;-84
2022/05/23 05:02:48;;;;;;;;;8.20;6.80;;;;;18.07;100.00;99803.19;6312879;22;45380;-83
2022/05/23 05:05:14;;;;;;;;;7.20;6.40;;;;;18.06;100.00;99787.25;6307230;22;44783;-83
2022/05/23 05:07:39;;;;;;;;;7.20;7.00;;;;;18.04;100.00;99792.81;6305916;22;45302;-83
2022/05/23 05:10:05;;;;;;;;;8.75;8.50;;;;;18.06;100.00;99789.94;6306789;22;45184;-83
2022/05/23 05:12:31;;;;;;;;;9.00;8.25;;;;;18.07;100.00;99773.63;6307552;22;45374;-83
2022/05/23 05:14:59;;;;;;;;;10.40;7.80;;;;;18.07;100.00;99776.31;6306693;22;44841;-83
2022/05/23 05:17:25;;;;;;;;;8.20;8.20;;;;;18.08;100.00;99767.22;6304435;22;46720;-84
2022/05/23 05:19:51;;;;;;;;;8.60;8.60;;;;;18.08;100.00;99771.78;6307739;22;45021;-83
2022/05/23 05:22:16;;;;;;;;;8.75;8.25;;;;;18.06;100.00;99771.13;6279903;22;44892;-83
2022/05/23 05:24:42;;;;;;;;;9.25;9.25;;;;;17.99;100.00;99779.06;6302144;22;45238;-83
2022/05/23 05:27:09;;;;;;;;;12.50;10.25;;;;;17.98;100.00;99771.97;6305723;22;44989;-84
2022/05/23 05:29:35;;;;;;;;;7.40;7.40;;;;;17.97;100.00;99786.44;6306530;22;45202;-84
2022/05/23 05:32:22;;;;;;;;;6.50;6.50;;;;;18.04;100.00;99771.31;6309576;22;44800;-86
2022/05/23 05:34:57;;;;;;;;;21.00;20.00;;;;;18.13;100.00;99786.38;6283243;22;45258;-82
2022/05/23 05:37:28;;;;;;;;;10.60;9.00;;;;;18.26;100.00;99798.41;6320610;22;45449;-84
2022/05/23 05:39:56;;;;;;;;;7.20;7.20;;;;;18.34;100.00;99801.06;6316049;22;45354;-83
2022/05/23 05:42:27;;;;;;;;;8.20;7.20;;;;;18.46;100.00;99807.72;6317949;22;44683;-86
2022/05/23 05:45:01;;;;;;;;;9.40;9.20;;;;;18.62;100.00;99810.34;6321441;22;44753;-85
2022/05/23 05:47:32;;;;;;;;;11.60;8.60;;;;;18.73;100.00;99788.44;6313048;22;45213;-85
2022/05/23 05:50:02;;;;;;;;;9.40;8.60;;;;;18.92;100.00;99789.81;6310516;22;45178;-85
2022/05/23 05:52:31;;;;;;;;;8.40;8.40;;;;;19.29;100.00;99790.00;6298709;22;44754;-86
2022/05/23 05:54:58;;;;;;;;;9.40;8.20;;;;;19.66;100.00;99773.81;6308770;22;45235;-86
2022/05/23 05:57:24;;;;;;;;;13.80;11.00;;;;;20.03;100.00;99764.81;6310439;22;45000;-86
2022/05/23 05:59:50;;;;;;;;;10.60;8.40;;;;;20.40;100.00;99771.03;6310388;22;45215;-85
2022/05/23 06:02:16;;;;;;;;;11.25;6.75;;;;;20.72;100.00;99768.94;6304237;22;45324;-89
2022/05/23 06:04:42;;;;;;;;;7.75;7.75;;;;;20.92;100.00;99771.84;6309086;22;45324;-86
2022/05/23 06:12:35;;;;;;;;;13.60;11.40;;;;;20.82;100.00;99777.56;6311828;22;44621;-85
2022/05/23 06:15:03;;;;;;;;;8.25;8.00;;;;;20.72;100.00;99783.28;6312686;22;44916;-85
2022/05/23 06:17:30;;;;;;;;;8.60;8.60;;;;;20.54;100.00;99794.50;6311600;22;45089;-84
2022/05/23 06:19:55;;;;;;;;;8.40;8.40;;;;;20.32;100.00;99798.16;6314449;22;44715;-85
2022/05/23 06:22:21;;;;;;;;;7.00;6.25;;;;;20.13;100.00;99787.97;6287371;22;45366;-86
2022/05/23 06:24:49;;;;;;;;;7.80;7.80;;;;;19.99;100.00;99781.53;6308321;22;44762;-87
2022/05/23 06:27:14;;;;;;;;;8.60;7.20;;;;;19.85;100.00;99777.84;6307601;22;45442;-87
2022/05/23 06:29:40;;;;;;;;;8.00;6.50;;;;;19.75;100.00;99764.63;6307107;22;44784;-85
2022/05/23 06:32:06;;;;;;;;;11.50;8.50;;;;;19.68;100.00;99752.94;6308358;22;45293;-86
2022/05/23 06:34:31;;;;;;;;;7.50;7.50;;;;;19.60;100.00;99739.53;6282115;22;44813;-86
2022/05/23 06:36:57;;;;;;;;;9.25;7.00;;;;;19.55;100.00;99733.03;6284042;22;46498;-86
2022/05/23 06:39:23;;;;;;;;;7.25;7.25;;;;;19.55;100.00;99728.47;6308195;22;44803;-85
2022/05/23 06:41:49;;;;;;;;;7.20;7.20;;;;;19.48;100.00;99739.13;6310061;22;45286;-86
2022/05/23 06:44:15;;;;;;;;;7.25;7.25;;;;;19.40;100.00;99727.63;6311659;22;45364;-86
2022/05/23 06:46:41;;;;;;;;;8.00;8.00;;;;;19.40;100.00;99738.41;6311846;22;45519;-86
2022/05/23 06:49:07;;;;;;;;;9.20;8.40;;;;;19.42;100.00;99750.66;6297910;22;44726;-85
2022/05/23 06:51:36;;;;;;;;;9.75;8.25;;;;;19.42;100.00;99745.25;6287568;22;44690;-85
2022/05/23 06:54:02;;;;;;;;;9.80;6.40;;;;;19.40;100.00;99738.41;6315247;22;44954;-84
2022/05/23 06:56:30;;;;;;;;;8.50;8.50;;;;;19.41;100.00;99735.50;6314865;22;45398;-85
2022/05/23 06:58:56;;;;;;;;;8.00;8.00;;;;;19.44;100.00;99734.31;6317521;22;45306;-85
2022/05/23 07:01:22;;;;;;;;;8.25;7.25;;;;;19.48;100.00;99739.13;6316570;22;44689;-86
2022/05/23 07:03:48;;;;;;;;;10.20;9.00;;;;;19.50;100.00;99736.25;6312381;22;44776;-85
2022/05/23 07:14:28;;;;;;;;;7.80;7.80;;;;;19.55;100.00;99728.47;6313497;22;44633;-85
2022/05/23 07:16:56;;;;;;;;;10.60;8.40;;;;;19.53;100.00;99743.97;6313383;22;45204;-86
2022/05/23 07:19:21;;;;;;;;;9.60;8.40;;;;;19.51;100.00;99744.16;6290523;22;45359;-85
2022/05/23 07:21:47;;;;;;;;;15.25;8.25;;;;;19.51;100.00;99735.22;6313683;22;45274;-88
2022/05/23 07:24:13;;;;;;;;;10.25;8.50;;;;;19.62;100.00;99728.56;6286354;22;44871;-88
2022/05/23 07:26:45;;;;;;;;;8.60;8.60;;;;;19.74;100.00;99743.28;6298277;22;45021;-90
2022/05/23 07:29:10;;;;;;;;;8.20;8.20;;;;;19.72;100.00;99759.59;6298189;22;44637;-91
2022/05/23 07:31:40;;;;;;;;;12.75;12.75;;;;;19.67;100.00;99753.09;6293394;22;44637;-89
2022/05/23 07:34:06;;;;;;;;;9.20;9.20;;;;;19.59;100.00;99743.25;6315098;22;45544;-89
2022/05/23 07:36:32;;;;;;;;;13.40;9.40;;;;;19.59;100.00;99750.50;6316206;22;45243;-89
2022/05/23 07:38:58;;;;;;;;;12.25;11.00;;;;;19.59;100.00;99747.78;6329039;22;45218;-89
2022/05/23 07:41:24;;;;;;;;;14.50;12.75;;;;;19.57;100.00;99750.66;6284974;22;45089;-89
2022/05/23 07:43:50;;;;;;;;;13.40;11.20;;;;;19.56;100.00;99740.06;6312510;22;44794;-89
2022/05/23 07:46:16;;;;;;;;;15.00;13.80;;;;;19.61;100.00;99708.03;6320831;22;45222;-89
2022/05/23 07:48:49;;;;;;;;;11.75;9.75;;;;;20.02;100.00;99689.50;6294265;22;44666;-88
2022/05/23 07:51:17;;;;;;;;;12.40;12.40;;;;;20.54;100.00;99677.63;6301169;22;44740;-87
2022/05/23 08:01:56;;;;;;;;;10.40;10.40;;;;;21.78;100.00;99681.44;6327257;22;44646;-89
2022/05/23 08:04:22;;;;;;;;;9.75;9.75;;;;;21.88;100.00;99680.22;6333202;22;44843;-88
2022/05/23 08:06:48;;;;;;;;;12.00;11.50;;;;;21.96;100.00;99674.66;6323523;22;46523;-89
2022/05/23 08:09:15;;;;;;;;;12.20;10.20;;;;;21.96;100.00;99670.06;6309653;22;44815;-90
2022/05/23 08:11:46;;;;;;;;;11.60;11.60;;;;;21.94;100.00;99672.13;6320675;22;44701;-89
2022/05/23 08:14:12;;;;;;;;;13.60;11.20;;;;;22.00;100.00;99663.22;6322192;22;44733;-89
2022/05/23 08:16:38;;;;;;;;;17.40;14.80;;;;;22.04;100.00;99667.16;6314667;22;45099;-85
2022/05/23 08:19:05;;;;;;;;;17.25;13.00;;;;;22.01;100.00;99672.16;6285624;22;45375;-84
2022/05/23 08:21:31;;;;;;;;;11.80;11.80;;;;;22.05;100.00;99668.84;6310761;22;44735;-83
2022/05/23 08:24:00;;;;;;;;;11.75;11.75;;;;;21.89;100.00;99690.00;6306275;22;45327;-86
2022/05/23 08:26:27;;;;;;;;;10.40;8.80;;;;;21.57;100.00;99692.34;6303140;22;46906;-85
2022/05/23 08:28:52;;;;;;;;;8.00;8.00;;;;;21.19;100.00;99702.69;6305736;22;45200;-86
2022/05/23 08:31:18;;;;;;;;;8.75;7.75;;;;;20.91;100.00;99694.56;6304769;22;44724;-85
2022/05/23 08:33:44;;;;;;;;;11.25;7.50;;;;;20.66;100.00;99700.38;6305974;22;45437;-84
2022/05/23 08:36:12;;;;;;;;;10.25;10.25;;;;;20.29;100.00;99704.13;6306771;22;45244;-84
2022/05/23 08:38:38;;;;;;;;;9.00;9.00;;;;;20.19;100.00;99695.50;6280263;22;45242;-87
2022/05/23 08:41:38;;;;;;;;;10.50;9.75;;;;;19.98;100.00;99699.81;6311146;22;44649;-86
2022/05/23 08:44:24;;;;;;;;;8.20;6.40;;;;;20.04;100.00;99690.16;6158187;23;44771;-84
2022/05/23 08:47:05;;;;;;;;;10.60;8.60;;;;;20.18;100.00;99689.28;6162553;23;45319;-85
2022/05/23 08:49:39;;;;;;;;;9.80;9.80;;;;;20.41;100.00;99693.66;6159803;23;45377;-86
2022/05/23 08:52:13;;;;;;;;;8.60;8.60;;;;;20.41;100.00;99697.19;6137623;23;45228;-85
2022/05/23 08:54:48;;;;;;;;;10.20;10.20;;;;;20.17;100.00;99694.88;6135687;23;45350;-84
2022/05/23 08:57:35;;;;;;;;;12.00;11.80;;;;;20.11;100.00;99707.22;6157445;23;45172;-85
2022/05/23 09:00:14;;;;;;;;;12.80;12.80;;;;;19.67;100.00;99702.75;6152030;23;45347;-86
2022/05/23 09:02:52;;;;;;;;;12.40;10.80;;;;;19.60;100.00;99696.44;6151421;23;45280;-86
2022/05/23 09:05:21;;;;;;;;;10.80;9.60;;;;;19.56;100.00;99705.03;6177445;23;45293;-86
2022/05/23 09:07:57;;;;;;;;;9.00;9.00;;;;;19.55;100.00;99715.00;6184014;23;45410;-86
2022/05/23 09:10:43;;;;;;;;;13.40;13.20;;;;;19.51;100.00;99709.13;6164044;23;45451;-85
2022/05/23 09:13:12;;;;;;;;;16.40;14.40;;;;;19.59;100.00;99708.22;6188354;23;44836;-85
2022/05/23 09:15:38;;;;;;;;;11.20;10.80;;;;;19.61;100.00;99711.56;6184842;23;44851;-86
2022/05/23 09:18:11;;;;;;;;;12.00;12.00;;;;;19.70;100.00;99709.63;6183183;23;45235;-88
2022/05/23 09:20:44;;;;;;;;;8.00;8.00;;;;;19.68;100.00;99707.13;6295249;22;44703;-80
2022/05/23 09:23:17;;;;;;;;;11.00;9.60;;;;;19.41;100.00;99696.97;6306353;22;45246;-82
2022/05/23 09:25:43;;;;;;;;;15.60;14.40;;;;;19.39;100.00;99704.38;6306613;22;45273;-82
2022/05/23 09:28:34;;;;;;;;;13.25;13.25;;;;;19.36;100.00;99702.91;6308573;22;45183;-84
2022/05/23 09:31:04;;;;;;;;;15.80;14.20;;;;;19.56;100.00;99702.34;6313602;22;45104;-83
2022/05/23 09:33:30;;;;;;;;;14.60;14.00;;;;;19.73;100.00;99688.53;6316870;22;44728;-85
2022/05/23 09:36:20;;;;;;;;;15.00;13.40;;;;;19.64;100.00;99694.22;6320806;22;45205;-86
2022/05/23 09:38:52;;;;;;;;;16.20;14.80;;;;;19.40;100.00;99688.06;6320862;22;44933;-85
2022/05/23 09:49:52;;;;;;;;;15.40;14.60;;;;;19.87;100.00;99691.38;6313927;22;44957;-86
2022/05/23 09:52:19;;;;;;;;;20.60;17.20;;;;;19.60;100.00;99701.81;6315564;22;44738;-84
2022/05/23 09:54:54;;;;;;;;;15.80;15.80;;;;;19.73;100.00;99690.41;6313902;22;44779;-87
2022/05/23 09:57:22;;;;;;;;;18.80;14.60;;;;;19.83;100.00;99704.41;6338445;22;44954;-85
2022/05/23 09:59:59;;;;;;;;;10.40;10.40;;;;;19.60;100.00;99691.06;6290072;22;46111;-86
2022/05/23 10:02:40;;;;;;;;;17.00;14.20;;;;;19.64;100.00;99686.97;6312961;22;45297;-86
2022/05/23 10:05:26;;;;;;;;;14.60;14.60;;;;;19.88;100.00;99683.13;6317297;22;44828;-84
2022/05/23 10:07:58;;;;;;;;;17.80;14.80;;;;;19.91;100.00;99685.41;6309561;22;44908;-84
2022/05/23 10:10:25;;;;;;;;;18.20;16.80;;;;;19.58;100.00;99689.50;6316859;22;45517;-85
2022/05/23 10:13:09;;;;;;;;;17.00;15.40;;;;;19.22;100.00;99687.56;6325506;22;44622;-85
2022/05/23 10:15:43;;;;;;;;;14.80;13.00;;;;;19.03;100.00;99677.34;6319964;22;44864;-85
2022/05/23 10:18:10;;;;;;;;;16.25;16.25;;;;;19.02;100.00;99679.19;6313704;22;45281;-86
2022/05/23 10:20:39;;;;;;;;;15.00;15.00;;;;;19.04;100.00;99682.53;6314777;22;45153;-84
2022/05/23 10:23:12;;;;;;;;;15.20;13.40;;;;;19.10;100.00;99689.88;6322237;22;44814;-85
2022/05/23 10:26:02;;;;;;;;;14.20;13.40;;;;;19.07;100.00;99682.16;6329802;22;45274;-83
2022/05/23 10:28:50;;;;;;;;;20.75;20.75;;;;;18.98;100.00;99684.09;6304039;22;44904;-85
2022/05/23 10:31:27;;;;;;;;;16.60;16.60;;;;;19.07;100.00;99689.41;6324384;22;45358;-85
2022/05/23 10:34:06;;;;;;;;;24.60;18.40;;;;;18.85;100.00;99694.63;6323239;22;44772;-86
2022/05/23 10:36:31;;;;;;;;;19.20;16.60;;;;;18.59;100.00;99703.06;6291707;22;44674;-85
2022/05/23 10:42:41;;;;;;;;;22.25;20.00;;;;;18.09;100.00;99717.03;6312323;22;45343;-85
2022/05/23 10:45:19;;;;;;;;;22.60;22.60;;;;;18.02;100.00;99705.28;6287135;22;45360;-86
2022/05/23 10:48:06;;;;;;;;;27.50;27.50;;;;;17.96;100.00;99682.66;6309047;22;45270;-85
2022/05/23 10:50:54;;;;;;;;;28.00;28.00;;;;;17.98;100.00;99697.56;6316298;22;44690;-84
2022/05/23 10:53:37;;;;;;;;;28.00;25.75;;;;;18.00;100.00;99689.34;6286974;22;45188;-85
2022/05/23 10:56:11;;;;;;;;;22.25;22.25;;;;;17.91;100.00;99690.41;6285265;22;44659;-85
2022/05/23 10:58:56;;;;;;;;;27.75;27.25;;;;;17.66;100.00;99697.72;6311503;22;45207;-85
2022/05/23 11:01:42;;;;;;;;;26.75;25.75;;;;;17.53;100.00;99700.94;6316714;22;44743;-85
2022/05/23 11:04:40;;;;;;;;;31.25;29.50;;;;;17.43;100.00;99735.19;6314008;22;45305;-85
2022/05/23 11:07:30;;;;;;;;;28.25;25.50;;;;;17.38;100.00;99759.03;6221195;22;44819;-83
2022/05/23 11:10:24;;;;;;;;;33.75;30.25;;;;;17.33;100.00;99716.59;6306668;22;44763;-88
2022/05/23 11:13:07;;;;;;;;;29.00;27.25;;;;;16.96;100.00;99711.78;6305909;22;44664;-83
2022/05/23 11:16:05;;;;;;;;;32.50;28.25;;;;;16.87;100.00;99731.56;6305896;22;45298;-83
2022/05/23 11:18:51;;;;;;;;;38.00;31.25;;;;;16.75;100.00;99740.97;6306461;22;44794;-84
2022/05/23 11:21:25;;;;;;;;;35.00;32.50;;;;;16.77;100.00;99749.69;6314869;22;44858;-84
2022/05/23 11:24:08;;;;;;;;;40.50;36.50;;;;;16.75;100.00;99746.34;6317084;22;44809;-83
2022/05/23 11:26:49;;;;;;;;;36.50;34.00;;;;;16.81;100.00;99754.53;6320122;22;44979;-83
2022/05/23 11:35:10;;;;;;;;;37.00;33.25;;;;;17.04;100.00;99743.97;6315340;22;44701;-84
2022/05/23 11:37:43;;;;;;;;;34.00;32.00;;;;;17.11;100.00;99749.50;6317473;22;45293;-83
2022/05/23 11:40:13;;;;;;;;;37.50;34.75;;;;;17.33;100.00;99756.88;6312774;22;44662;-83
2022/05/23 11:42:58;;;;;;;;;34.75;32.00;;;;;17.52;100.00;99769.09;6311036;22;44775;-83
2022/05/23 11:51:18;;;;;;;;;35.50;32.50;;;;;17.61;100.00;99757.31;6309816;22;44626;-84
2022/05/23 11:54:03;;;;;;;;;39.75;36.25;;;;;17.64;100.00;99756.94;6308829;22;45166;-82
2022/05/23 11:56:44;;;;;;;;;30.75;28.00;;;;;17.63;100.00;99760.66;6308952;22;44765;-83
2022/05/23 11:59:32;;;;;;;;;38.00;36.25;;;;;17.58;100.00;99754.13;6308683;22;45457;-84
2022/05/23 12:02:06;;;;;;;;;35.75;33.25;;;;;17.46;100.00;99753.66;6310099;22;44787;-84
2022/05/23 12:04:33;;;;;;;;;40.75;36.25;;;;;17.30;100.00;99757.19;6314715;22;45291;-83
2022/05/23 12:06:59;;;;;;;;;36.00;33.75;;;;;17.13;100.00;99766.28;6312137;22;44716;-82
2022/05/23 12:09:30;;;;;;;;;40.25;36.25;;;;;17.10;100.00;99775.50;6312725;22;45273;-83
2022/05/23 12:12:29;;;;;;;;;40.00;33.75;;;;;17.14;100.00;99767.97;6313931;22;44801;-84
2022/05/23 12:14:55;;;;;;;;;31.75;28.75;;;;;17.10;100.00;99762.09;6309677;22;45294;-81
2022/05/23 12:17:27;;;;;;;;;35.50;33.00;;;;;17.04;100.00;99769.97;6278054;22;45512;-83
2022/05/23 12:19:56;;;;;;;;;28.25;28.25;;;;;16.89;100.00;99775.19;6305142;22;45196;-82
2022/05/23 12:22:57;;;;;;;;;33.50;32.50;;;;;16.72;100.00;99768.94;6304777;22;44763;-81
2022/05/23 12:25:25;;;;;;;;;26.75;26.75;;;;;16.43;100.00;99780.94;6304892;22;45257;-83
2022/05/23 12:27:50;;;;;;;;;24.00;18.00;;;;;16.35;100.00;99790.81;6304784;22;45163;-82
2022/05/23 12:30:22;;;;;;;;;22.00;18.50;;;;;16.26;100.00;99792.63;6304867;22;45179;-81
2022/05/23 12:32:58;;;;;;;;;28.00;27.50;;;;;16.15;100.00;99792.94;6305398;22;45341;-84
2022/05/23 12:35:46;;;;;;;;;23.25;20.25;;;;;16.14;100.00;99800.09;6305533;22;44832;-81
2022/05/23 12:38:41;;;;;;;;;27.00;26.75;;;;;16.13;100.00;99800.28;6307699;22;45392;-81